< Typhoon 198218 1982 Season Typhoon 198220 >
Typhoon 198219 (KEN)
General InformationTrack Information on Google MapsDetailed Wind InformationList of All Images || Disaster Info.ResourceGoogle EarthGE AnimationAtom FeedGeoJSON
Detalied Best Track (Time Zone = UTC)
Year Month Day Hour Lat. Long. Pressure (hPa) Wind (kt) Class Image Chart
1982 9 15 00 17.0 136.0 1006 0 2 Image Chart
1982 9 15 06 17.0 135.0 1006 0 2 Image Chart
1982 9 15 12 17.2 134.2 1006 0 2 Image Chart
1982 9 15 18 17.5 133.5 1004 0 2 Image Chart
1982 9 16 00 17.5 132.7 1004 0 2 Image Chart
1982 9 16 06 17.6 132.3 1000 0 2 Image Chart
1982 9 16 12 17.8 131.8 996 35 3 Image Chart
1982 9 16 18 18.1 131.1 994 35 3 Image Chart
1982 9 17 00 18.4 130.5 990 45 3 Image Chart
1982 9 17 06 18.7 130.0 985 50 4 Image Chart
1982 9 17 12 19.0 129.4 970 60 4 Image Chart
1982 9 17 18 19.2 129.1 960 70 5 Image Chart
1982 9 18 00 19.6 128.3 945 80 5 Image Chart
1982 9 18 06 19.9 127.5 940 90 5 Image Chart
1982 9 18 12 20.2 127.0 940 90 5 Image Chart
1982 9 18 18 20.7 126.5 940 90 5 Image Chart
1982 9 19 00 20.6 126.0 950 80 5 Image Chart
1982 9 19 06 20.6 125.2 950 80 5 Image Chart
1982 9 19 12 20.6 124.9 945 85 5 Image Chart
1982 9 19 18 20.7 124.6 945 85 5 Image Chart
1982 9 20 00 20.8 124.4 940 85 5 Image Chart
1982 9 20 06 20.9 124.1 940 85 5 Image Chart
1982 9 20 12 21.0 124.3 940 95 5 Image Chart
1982 9 20 18 21.0 124.6 950 95 5 Image Chart
1982 9 21 00 21.1 124.8 955 85 5 Image Chart
1982 9 21 06 21.2 124.9 955 85 5 Image Chart
1982 9 21 12 21.3 124.9 955 80 5 Image Chart
1982 9 21 18 21.8 124.8 960 80 5 Image Chart
1982 9 22 00 22.2 125.2 965 70 5 Image Chart
1982 9 22 06 22.7 125.7 965 70 5 Image Chart
1982 9 22 12 23.0 126.3 965 70 5 Image Chart
1982 9 22 18 23.4 126.8 965 70 5 Image Chart
1982 9 23 00 24.2 127.6 965 70 5 Image Chart
1982 9 23 06 24.9 128.3 965 70 5 Image Chart
1982 9 23 12 25.8 129.3 965 70 5 Image Chart
1982 9 23 18 26.9 130.3 965 70 5 Image Chart
1982 9 24 00 27.9 130.8 970 70 5 Image Chart
1982 9 24 06 29.4 131.5 970 70 5 Image Chart
1982 9 24 12 31.2 132.3 970 70 5 Image Chart
1982 9 24 18 33.1 132.5 978 50 4 Image Chart
1982 9 25 00 35.4 132.4 990 45 3 Image Chart
1982 9 25 06 37.0 132.5 992 0 6 Image Chart
1982 9 25 12 38.0 133.0 994 0 6 Image Chart
1982 9 25 18 38.5 134.0 996 0 6 Image Chart
1982 9 26 00 39.3 135.2 996 0 6 Image Chart
1982 9 26 06 40.5 137.0 998 0 6 Image Chart
1982 9 26 12 42.5 140.0 998 0 6 Image Chart
1982 9 26 18 45.0 144.0 996 0 6 Image Chart
1982 9 27 00 48.0 150.0 996 0 6 Image Chart
Japan Meteorological Agency Best Track Data | Correction Date : 1992-10-21
< Typhoon 198218 1982 Season Typhoon 198220 >

Help